createdAt,value
2022-11-01T00:04:24.261Z,48.47
2022-11-01T00:09:31.644Z,51.50
2022-11-01T00:14:36.538Z,51.90
2022-11-01T00:19:44.924Z,47.50
2022-11-01T00:24:54.850Z,55.80
2022-11-01T00:29:59.943Z,50.33
2022-11-01T00:35:04.704Z,50.73
2022-11-01T00:40:13.669Z,53.97
2022-11-01T00:45:19.075Z,49.07
2022-11-01T00:50:24.276Z,43.53
2022-11-01T00:55:34.118Z,41.97
2022-11-01T01:00:38.954Z,48.37
2022-11-01T01:05:43.707Z,47.97
2022-11-01T01:10:52.190Z,35.77
2022-11-01T01:15:57.508Z,49.33
2022-11-01T01:21:06.342Z,33.90
2022-11-01T01:26:14.525Z,36.33
2022-11-01T01:31:19.354Z,35.47
2022-11-01T01:36:24.106Z,33.93
2022-11-01T01:41:43.967Z,33.43
2022-11-01T01:46:48.829Z,37.43
2022-11-01T01:51:53.717Z,35.30
2022-11-01T01:57:01.852Z,36.70
2022-11-01T02:02:06.874Z,34.63
2022-11-01T02:07:12.890Z,32.70
2022-11-01T02:12:20.729Z,35.50
2022-11-01T02:17:33.585Z,37.07
2022-11-01T02:22:56.642Z,34.70
2022-11-01T02:28:23.133Z,39.17
2022-11-01T02:33:37.193Z,35.70
2022-11-01T02:38:49.880Z,34.17
2022-11-01T02:43:58.969Z,32.83
2022-11-01T02:49:07.296Z,32.47
2022-11-01T02:54:13.590Z,31.80
2022-11-01T02:59:22.700Z,34.43
2022-11-01T03:04:30.261Z,37.87
2022-11-01T03:09:36.056Z,35.57
2022-11-01T03:14:51.700Z,32.63
2022-11-01T03:20:08.629Z,32.63
2022-11-01T03:25:37.463Z,33.73
2022-11-01T03:30:45.734Z,33.40
2022-11-01T03:35:57.069Z,32.80
2022-11-01T03:41:06.462Z,34.80
2022-11-01T03:46:12.475Z,33.50
2022-11-01T03:51:20.066Z,35.20
2022-11-01T03:56:24.934Z,28.87
2022-11-01T04:01:29.852Z,28.70
2022-11-01T04:06:37.382Z,28.43
2022-11-01T04:11:42.148Z,26.50
2022-11-01T04:16:59.857Z,27.27
2022-11-01T04:22:07.530Z,30.60
2022-11-01T04:27:13.162Z,31.77
2022-11-01T04:32:18.071Z,30.87
2022-11-01T04:37:25.658Z,26.60
2022-11-01T04:42:30.690Z,28.40
2022-11-01T04:47:35.598Z,27.17
2022-11-01T04:52:43.072Z,24.57
2022-11-01T04:57:47.918Z,21.87
2022-11-01T05:02:53.540Z,23.03
2022-11-01T05:08:05.386Z,26.27
2022-11-01T05:13:11.017Z,23.43
2022-11-01T05:18:15.948Z,25.37
2022-11-01T05:23:23.479Z,22.93
2022-11-01T05:28:28.277Z,29.10
2022-11-01T05:33:33.423Z,24.50
2022-11-01T05:38:40.813Z,28.10
2022-11-01T05:43:45.721Z,25.33
2022-11-01T05:48:52.184Z,24.43
2022-11-01T05:54:00.148Z,24.93
2022-11-01T05:59:08.212Z,26.03
2022-11-01T06:04:13.413Z,31.90
2022-11-01T06:09:20.887Z,29.57
2022-11-01T06:14:25.863Z,26.93
2022-11-01T06:19:31.583Z,28.27
2022-11-01T06:24:39.370Z,29.53
2022-11-01T06:29:44.250Z,31.23
2022-11-01T06:34:49.176Z,30.10
2022-11-01T06:39:56.586Z,29.67
2022-11-01T06:45:01.660Z,32.00
2022-11-01T06:50:08.045Z,31.37
2022-11-01T06:55:16.967Z,29.03
2022-11-01T07:00:23.105Z,29.03
2022-11-01T07:05:30.373Z,25.33
2022-11-01T07:10:43.905Z,26.60
2022-11-01T07:15:51.095Z,32.10
2022-11-01T07:20:55.811Z,24.03
2022-11-01T07:26:03.493Z,25.57
2022-11-01T07:31:08.651Z,29.57
2022-11-01T07:36:13.943Z,24.30
2022-11-01T07:41:21.440Z,23.83
2022-11-01T07:46:26.380Z,24.83
2022-11-01T07:51:31.284Z,23.23
2022-11-01T07:56:40.992Z,24.30
2022-11-01T08:01:45.923Z,21.07
2022-11-01T08:06:52.213Z,25.57
2022-11-01T08:12:00.065Z,19.67
2022-11-01T08:17:05.049Z,17.87
2022-11-01T08:22:09.778Z,17.50
2022-11-01T08:27:20.062Z,17.07
2022-11-01T08:32:24.979Z,16.17
2022-11-01T08:37:29.805Z,17.53
2022-11-01T08:42:37.186Z,20.27
2022-11-01T08:47:42.195Z,15.27
2022-11-01T08:52:47.329Z,14.87
2022-11-01T08:57:54.792Z,14.03
2022-11-01T09:03:00.019Z,16.47
2022-11-01T09:08:07.524Z,21.20
2022-11-01T09:13:15.357Z,16.00
2022-11-01T09:18:20.749Z,14.07
2022-11-01T09:23:26.082Z,14.20
2022-11-01T09:28:34.889Z,16.47
2022-11-01T09:33:40.085Z,14.00
2022-11-01T09:38:47.167Z,16.43
2022-11-01T09:43:57.242Z,16.10
2022-11-01T09:49:04.254Z,17.27
2022-11-01T09:54:09.615Z,15.63
2022-11-01T09:59:29.293Z,17.00
2022-11-01T10:05:03.311Z,16.63
2022-11-01T10:10:29.918Z,13.63
2022-11-01T10:15:52.245Z,14.80
2022-11-01T10:21:00.137Z,12.30
2022-11-01T10:26:07.067Z,15.70
2022-11-01T10:31:18.656Z,16.17
2022-11-01T10:36:31.161Z,13.53
2022-11-01T10:41:44.950Z,13.07
2022-11-01T10:46:55.660Z,16.63
2022-11-01T10:52:09.306Z,12.13
2022-11-01T10:57:20.880Z,18.80
2022-11-01T11:02:34.541Z,16.73
2022-11-01T11:07:39.427Z,15.47
2022-11-01T11:12:44.957Z,16.03
2022-11-01T11:17:59.723Z,16.77
2022-11-01T11:23:08.050Z,15.13
2022-11-01T11:28:26.834Z,14.70
2022-11-01T11:33:41.661Z,14.07
2022-11-01T11:38:48.796Z,16.00
2022-11-01T11:43:55.903Z,12.37
2022-11-01T11:49:04.515Z,14.03
2022-11-01T11:54:26.070Z,15.20
2022-11-01T11:59:33.873Z,15.83
2022-11-01T12:04:49.501Z,14.97
2022-11-01T12:09:54.566Z,13.50
2022-11-01T12:15:02.250Z,10.87
2022-11-01T12:20:20.426Z,9.57
2022-11-01T12:25:27.343Z,15.30
2022-11-01T12:30:36.417Z,12.37
2022-11-01T12:35:45.868Z,8.23
2022-11-01T12:40:54.954Z,11.23
2022-11-01T12:46:04.948Z,13.33
2022-11-01T12:51:19.544Z,10.07
2022-11-01T12:56:24.760Z,7.27
2022-11-01T13:01:38.099Z,6.90
2022-11-01T13:06:59.971Z,7.53
2022-11-01T13:12:13.509Z,12.00
2022-11-01T13:17:28.913Z,6.37
2022-11-01T13:22:47.513Z,10.13
2022-11-01T13:28:07.083Z,8.13
2022-11-01T13:33:26.173Z,10.07
2022-11-01T13:38:42.767Z,6.70
2022-11-01T13:43:52.313Z,8.73
2022-11-01T13:49:24.138Z,8.10
2022-11-01T13:54:41.356Z,10.53
2022-11-01T13:59:55.574Z,5.77
2022-11-01T14:05:01.725Z,11.00
2022-11-01T14:10:53.263Z,7.60
2022-11-01T14:16:29.038Z,11.53
2022-11-01T14:21:43.629Z,11.37
2022-11-01T14:27:09.143Z,7.80
2022-11-01T14:32:19.235Z,8.97
2022-11-01T14:37:29.511Z,11.03
2022-11-01T14:42:47.582Z,7.60
2022-11-01T14:47:56.416Z,11.60
2022-11-01T14:53:12.431Z,12.80
2022-11-01T14:58:26.666Z,14.07
2022-11-01T15:03:37.847Z,10.90
2022-11-01T15:08:44.477Z,17.10
2022-11-01T15:13:53.396Z,14.17
2022-11-01T15:19:01.054Z,19.90
2022-11-01T15:24:08.306Z,19.83
2022-11-01T15:29:20.112Z,19.53
2022-11-01T15:34:30.125Z,18.13
2022-11-01T15:39:38.894Z,16.00
2022-11-01T15:44:47.866Z,17.83
2022-11-01T15:49:58.030Z,17.20
2022-11-01T15:55:09.723Z,19.87
2022-11-01T16:00:35.066Z,17.50
2022-11-01T16:05:45.625Z,21.53
2022-11-01T16:10:50.576Z,25.30
2022-11-01T16:16:10.415Z,22.80
2022-11-01T16:21:29.929Z,23.73
2022-11-01T16:26:34.853Z,20.90
2022-11-01T16:31:43.312Z,25.53
2022-11-01T16:36:48.347Z,26.03
2022-11-01T16:41:55.810Z,27.90
2022-11-01T16:47:03.347Z,27.27
2022-11-01T16:52:13.524Z,29.13
2022-11-01T16:57:27.629Z,28.17
2022-11-01T17:02:39.140Z,30.70
2022-11-01T17:07:44.124Z,31.50
2022-11-01T17:12:49.770Z,28.33
2022-11-01T17:17:57.640Z,29.33
2022-11-01T17:23:02.800Z,40.23
2022-11-01T17:28:08.132Z,32.70
2022-11-01T17:33:16.889Z,31.17
2022-11-01T17:38:30.211Z,29.77
2022-11-01T17:43:35.629Z,32.30
2022-11-01T17:48:43.016Z,34.37
2022-11-01T17:53:48.819Z,38.97
2022-11-01T17:58:54.039Z,34.87
2022-11-01T18:04:01.507Z,36.83
2022-11-01T18:09:20.960Z,36.13
2022-11-01T18:14:42.347Z,36.50
2022-11-01T18:19:59.536Z,47.13
2022-11-01T18:25:08.152Z,43.00
2022-11-01T18:30:18.865Z,42.50
2022-11-01T18:35:33.238Z,36.93
2022-11-01T18:40:52.341Z,43.30
2022-11-01T18:46:23.443Z,38.40
2022-11-01T18:51:29.740Z,37.10
2022-11-01T18:56:34.697Z,42.10
2022-11-01T19:01:40.900Z,44.03
2022-11-01T19:06:48.825Z,42.60
2022-11-01T19:12:01.864Z,40.33
2022-11-01T19:17:08.640Z,38.67
2022-11-01T19:22:34.340Z,42.17
2022-11-01T19:27:39.536Z,41.43
2022-11-01T19:32:44.982Z,39.83
2022-11-01T19:37:58.612Z,48.57
2022-11-01T19:43:14.446Z,42.40
2022-11-01T19:48:24.846Z,41.57
2022-11-01T19:53:42.126Z,38.37
2022-11-01T19:58:51.939Z,40.23
2022-11-01T20:04:00.537Z,42.80
2022-11-01T20:09:14.667Z,47.97
2022-11-01T20:14:20.419Z,37.07
2022-11-01T20:19:28.968Z,39.40
2022-11-01T20:24:37.510Z,40.70
2022-11-01T20:29:42.896Z,49.90
2022-11-01T20:34:52.925Z,47.57
2022-11-01T20:40:05.987Z,49.40
2022-11-01T20:45:14.106Z,34.47
2022-11-01T20:50:22.833Z,37.47
2022-11-01T20:55:33.558Z,28.57
2022-11-01T21:00:39.989Z,30.97
2022-11-01T21:05:45.897Z,28.50
2022-11-01T21:10:58.036Z,35.27
2022-11-01T21:16:05.926Z,31.07
2022-11-01T21:21:47.090Z,26.37
2022-11-01T21:26:56.121Z,34.17
2022-11-01T21:32:06.143Z,17.80
2022-11-01T21:37:12.045Z,26.53
2022-11-01T21:42:33.980Z,34.63
2022-11-01T21:47:45.580Z,28.83
2022-11-01T21:52:51.457Z,16.43
2022-11-01T21:57:59.005Z,27.60
2022-11-01T22:03:04.177Z,28.83
2022-11-01T22:08:09.096Z,27.30
2022-11-01T22:13:16.469Z,17.57
2022-11-01T22:18:25.147Z,22.83
2022-11-01T22:23:30.449Z,21.30
2022-11-01T22:28:38.242Z,21.23
2022-11-01T22:33:44.934Z,11.50
2022-11-01T22:38:52.430Z,14.47
2022-11-01T22:44:02.312Z,21.87
2022-11-01T22:49:16.859Z,17.00
2022-11-01T22:54:32.058Z,15.33
2022-11-01T22:59:44.273Z,12.67
2022-11-01T23:04:49.246Z,15.00
2022-11-01T23:10:05.134Z,16.43
2022-11-01T23:15:25.990Z,22.87
2022-11-01T23:20:31.610Z,21.43
2022-11-01T23:25:36.407Z,14.50
2022-11-01T23:30:46.038Z,20.17
2022-11-01T23:35:54.866Z,15.17
2022-11-01T23:41:00.932Z,15.80
2022-11-01T23:46:09.292Z,15.70
2022-11-01T23:51:18.583Z,16.20
2022-11-01T23:56:24.486Z,15.43
